Time;durP1;ratioP1;P1;durP2;ratioP2;P2;SDS_P1;SDS_P2;PMS_P1;PMS_P2;Temp;Humidity;BMP_temperature;BMP_pressure;BME280_temperature;BME280_humidity;BME280_pressure;Samples;Min_cycle;Max_cycle;Signal;HPM_P1;HPM_P2
2021/10/13 00:02:17;;;;;;;23.90;18.17;;;;;;;9.55;62.57;99872.84;1683913;83;21044;-58
2021/10/13 00:04:43;;;;;;;20.25;18.12;;;;;;;9.51;62.72;99873.73;1687733;83;21845;-58
2021/10/13 00:07:09;;;;;;;22.02;18.20;;;;;;;9.48;62.79;99884.75;1669232;83;21339;-59
2021/10/13 00:09:35;;;;;;;19.52;17.52;;;;;;;9.47;62.89;99888.41;1688161;83;21367;-59
2021/10/13 00:12:02;;;;;;;19.35;17.05;;;;;;;9.46;62.96;99889.96;1686942;82;21041;-63
2021/10/13 00:14:29;;;;;;;20.53;16.83;;;;;;;9.45;63.12;99886.45;1707286;82;20996;-59
2021/10/13 00:17:02;;;;;;;23.62;18.35;;;;;;;9.44;63.33;99880.02;1649299;85;21821;-59
2021/10/13 00:19:23;;;;;;;22.73;18.37;;;;;;;9.37;63.46;99874.63;1656697;84;21085;-62
2021/10/13 00:21:50;;;;;;;18.10;15.70;;;;;;;9.33;63.76;99874.70;1710506;82;21300;-59
2021/10/13 00:24:16;;;;;;;17.37;15.40;;;;;;;9.32;63.98;99871.72;1675194;82;21005;-57
2021/10/13 00:26:43;;;;;;;20.52;17.30;;;;;;;9.37;63.92;99872.48;1666917;84;21367;-57
2021/10/13 00:29:09;;;;;;;21.37;15.28;;;;;;;9.36;63.93;99875.63;1659166;84;21894;-58
2021/10/13 00:31:35;;;;;;;22.37;18.45;;;;;;;9.30;64.41;99867.09;1607472;87;21258;-58
2021/10/13 00:34:01;;;;;;;22.07;18.35;;;;;;;9.21;64.80;99864.25;1661903;84;21101;-57
2021/10/13 00:36:28;;;;;;;22.07;18.77;;;;;;;9.11;64.99;99864.06;1669562;84;21089;-59
2021/10/13 00:38:54;;;;;;;21.77;19.07;;;;;;;9.04;65.11;99865.86;1661491;84;21011;-59
2021/10/13 00:41:20;;;;;;;21.48;18.82;;;;;;;9.01;65.17;99860.91;1666940;84;21089;-59
2021/10/13 00:43:46;;;;;;;19.80;17.55;;;;;;;9.01;65.43;99860.91;1707954;82;21381;-58
2021/10/13 00:46:12;;;;;;;23.57;18.55;;;;;;;9.03;65.55;99858.88;1721418;81;21044;-62
2021/10/13 00:48:38;;;;;;;22.95;17.85;;;;;;;9.12;65.64;99867.05;1725367;81;21831;-57
2021/10/13 00:51:05;;;;;;;18.40;16.40;;;;;;;9.13;65.59;99870.53;1724133;81;21082;-63
2021/10/13 00:53:31;;;;;;;21.20;18.10;;;;;;;9.09;66.01;99871.92;1713391;81;21266;-58
2021/10/13 00:55:57;;;;;;;23.47;18.70;;;;;;;9.03;66.25;99881.48;1729869;81;21056;-60
2021/10/13 00:58:24;;;;;;;22.42;18.05;;;;;;;8.93;66.28;99883.64;1731829;81;21389;-57
2021/10/13 01:00:56;;;;;;;;;;;;;;;8.98;66.34;99895.02;1731730;81;21099;-57
2021/10/13 01:03:33;;;;;;;20.43;18.23;;;;;;;8.96;66.48;99889.38;1711594;81;20193;-59
2021/10/13 01:06:21;;;;;;;20.00;17.90;;;;;;;8.82;66.75;99870.84;1728265;81;21143;-61
2021/10/13 01:09:15;;;;;;;20.55;16.48;;;;;;;8.84;66.88;99881.59;1684431;83;21029;-58
2021/10/13 01:12:29;;;;;;;25.93;16.90;;;;;;;8.87;66.92;99877.73;1728003;81;21024;-57
2021/10/13 01:15:25;;;;;;;22.83;18.87;;;;;;;8.94;66.81;99874.64;1713386;81;21095;-57
2021/10/13 01:18:31;;;;;;;20.37;17.33;;;;;;;8.89;66.95;99870.38;1727889;81;21080;-58
2021/10/13 01:21:14;;;;;;;21.20;17.60;;;;;;;8.81;67.16;99860.70;1714810;81;21040;-62
2021/10/13 01:24:28;;;;;;;20.17;17.40;;;;;;;8.75;67.33;99871.58;1718325;81;21032;-60
2021/10/13 01:27:35;;;;;;;23.23;18.30;;;;;;;8.68;67.49;99873.84;1711245;81;21857;-58
2021/10/13 01:30:05;;;;;;;22.57;19.50;;;;;;;8.62;67.78;99874.59;1721799;81;21878;-61
2021/10/13 01:32:36;;;;;;;23.23;18.80;;;;;;;8.53;67.93;99874.72;1690343;83;21800;-59
2021/10/13 01:35:05;;;;;;;19.40;17.03;;;;;;;8.56;67.92;99866.88;1680349;83;21144;-58
2021/10/13 01:37:42;;;;;;;21.80;17.23;;;;;;;8.66;67.73;99864.72;1727686;81;21024;-59
2021/10/13 01:40:13;;;;;;;23.40;18.45;;;;;;;8.70;67.68;99863.84;1722703;81;21024;-58
2021/10/13 01:42:45;;;;;;;20.67;18.53;;;;;;;8.66;67.86;99867.38;1716980;81;22232;-60
2021/10/13 01:45:15;;;;;;;20.83;18.53;;;;;;;8.61;68.03;99870.28;1720598;81;20989;-60
2021/10/13 01:47:45;;;;;;;20.10;18.00;;;;;;;8.55;68.10;99872.70;1715832;81;21790;-58
2021/10/13 01:50:13;;;;;;;22.07;18.60;;;;;;;8.52;68.17;99873.57;1725152;81;21294;-59
2021/10/13 01:52:41;;;;;;;20.67;18.53;;;;;;;8.49;68.27;99880.58;1723542;81;21068;-58
2021/10/13 01:55:11;;;;;;;21.33;18.97;;;;;;;8.43;68.44;99872.84;1720060;81;22521;-58
2021/10/13 01:57:43;;;;;;;20.83;16.87;;;;;;;8.45;68.40;99877.46;1726760;81;21009;-59
2021/10/13 02:00:09;;;;;;;23.43;18.67;;;;;;;8.54;68.39;99876.34;1735438;81;21116;-59
2021/10/13 02:02:39;;;;;;;26.13;19.37;;;;;;;8.53;68.53;99877.86;1727819;81;21322;-60
2021/10/13 02:05:08;;;;;;;20.50;18.50;;;;;;;8.43;68.91;99876.83;1688752;82;21021;-58
2021/10/13 02:07:37;;;;;;;20.13;18.13;;;;;;;8.38;69.17;99880.50;1733436;81;21094;-60
2021/10/13 02:10:08;;;;;;;21.50;19.10;;;;;;;8.37;69.31;99887.66;1713947;81;21104;-60
2021/10/13 02:12:38;;;;;;;21.10;18.60;;;;;;;8.36;69.41;99888.68;1717717;81;21123;-60
2021/10/13 02:15:08;;;;;;;18.43;16.53;;;;;;;8.43;69.44;99893.28;1712239;81;21044;-60
2021/10/13 02:17:38;;;;;;;20.67;18.13;;;;;;;8.52;69.40;99895.64;1675572;83;21128;-60
2021/10/13 02:20:06;;;;;;;20.40;17.73;;;;;;;8.56;69.48;99894.25;1683008;83;21061;-61
2021/10/13 02:22:37;;;;;;;20.83;17.30;;;;;;;8.51;69.62;99902.45;1711577;81;21119;-58
2021/10/13 02:25:04;;;;;;;20.03;17.93;;;;;;;8.48;69.89;99906.83;1733536;81;21785;-60
2021/10/13 02:28:04;;;;;;;19.67;17.33;;;;;;;8.43;70.06;99907.88;1712476;81;21443;-58
2021/10/13 02:30:30;;;;;;;19.20;17.10;;;;;;;8.39;70.17;99904.73;1710514;81;21315;-57
2021/10/13 02:32:57;;;;;;;20.92;18.30;;;;;;;8.36;70.48;99905.94;1719633;82;21305;-56
2021/10/13 02:35:23;;;;;;;21.60;17.00;;;;;;;8.35;70.34;99906.94;1713032;81;21012;-62
2021/10/13 02:37:50;;;;;;;20.08;16.93;;;;;;;8.43;70.33;99907.88;1716539;81;21870;-58
2021/10/13 02:40:16;;;;;;;23.03;17.30;;;;;;;8.44;70.31;99907.70;1730745;81;21252;-59
2021/10/13 02:42:43;;;;;;;23.75;18.87;;;;;;;8.45;70.39;99905.35;1723725;81;21082;-59
2021/10/13 02:45:10;;;;;;;;;;;;;;;8.40;70.54;99903.74;1729524;81;21329;-58
2021/10/13 02:47:57;;;;;;;23.30;18.47;;;;;;;8.30;70.74;99896.03;1713765;81;20126;-61
2021/10/13 02:50:50;;;;;;;21.73;19.43;;;;;;;8.27;71.09;99904.87;1717489;81;21059;-57
2021/10/13 02:53:42;;;;;;;25.60;18.00;;;;;;;8.23;71.28;99910.23;1709324;81;21088;-58
2021/10/13 02:56:25;;;;;;;21.57;17.87;;;;;;;8.27;71.36;99913.68;1719823;81;21039;-59
2021/10/13 02:59:10;;;;;;;21.83;18.00;;;;;;;8.30;71.33;99893.38;1716057;81;21074;-62
2021/10/13 03:01:40;;;;;;;23.30;19.47;;;;;;;8.35;71.37;99904.28;1710835;81;21754;-60
2021/10/13 03:04:20;;;;;;;22.07;19.57;;;;;;;8.27;71.79;99903.06;1711757;81;21048;-60
2021/10/13 03:07:06;;;;;;;22.00;19.67;;;;;;;8.23;71.89;99904.44;1714935;81;21405;-59
2021/10/13 03:09:37;;;;;;;24.03;20.60;;;;;;;8.17;72.12;99906.00;1699934;81;21139;-60
2021/10/13 03:12:07;;;;;;;23.17;19.63;;;;;;;8.14;72.27;99909.52;1709000;81;21867;-58
2021/10/13 03:14:37;;;;;;;24.50;19.87;;;;;;;8.14;72.33;99909.01;1718534;81;21016;-59
2021/10/13 03:17:04;;;;;;;26.07;19.57;;;;;;;8.21;72.14;99914.39;1716053;81;21534;-59
2021/10/13 03:19:37;;;;;;;24.17;19.83;;;;;;;8.27;72.09;99913.68;1712622;81;21095;-58
2021/10/13 03:22:05;;;;;;;24.33;20.27;;;;;;;8.29;72.13;99918.30;1708532;81;21892;-61
2021/10/13 03:24:32;;;;;;;25.50;20.97;;;;;;;8.24;72.20;99915.36;1722486;81;21040;-57
2021/10/13 03:26:58;;;;;;;23.50;21.00;;;;;;;8.18;72.39;99911.61;1725100;81;21135;-58
2021/10/13 03:29:25;;;;;;;25.85;22.32;;;;;;;8.15;72.49;99913.30;1714189;81;21062;-58
2021/10/13 03:31:51;;;;;;;24.12;21.52;;;;;;;8.11;72.61;99912.53;1714374;81;22202;-59
2021/10/13 03:34:17;;;;;;;28.17;22.10;;;;;;;8.14;72.51;99921.47;1712300;81;21263;-60
2021/10/13 03:36:47;;;;;;;26.48;21.17;;;;;;;8.22;72.26;99922.69;1715241;81;22029;-59
2021/10/13 03:39:16;;;;;;;26.87;22.27;;;;;;;8.27;72.12;99926.95;1715807;81;21834;-59
2021/10/13 03:41:43;;;;;;;26.40;21.60;;;;;;;8.27;72.08;99922.13;1714454;81;21085;-58
2021/10/13 03:44:10;;;;;;;27.97;23.10;;;;;;;8.22;72.23;99923.20;1715886;81;21782;-58
2021/10/13 03:46:37;;;;;;;25.50;22.80;;;;;;;8.18;72.28;99924.88;1718947;81;21352;-60
2021/10/13 03:49:04;;;;;;;30.37;24.37;;;;;;;8.15;72.32;99928.41;1710868;81;21285;-60
2021/10/13 03:51:31;;;;;;;27.87;22.50;;;;;;;8.05;72.35;99915.92;1692668;82;21127;-60
2021/10/13 03:53:57;;;;;;;29.77;22.62;;;;;;;8.12;72.29;99926.13;1713403;81;21349;-60
2021/10/13 03:56:24;;;;;;;25.95;23.27;;;;;;;8.16;72.10;99930.88;1661950;84;21131;-59
2021/10/13 03:58:50;;;;;;;30.75;25.00;;;;;;;8.17;71.93;99927.72;1715578;81;21338;-61
2021/10/13 04:01:16;;;;;;;27.70;24.32;;;;;;;8.12;71.98;99915.52;1732844;81;21099;-63
2021/10/13 04:03:43;;;;;;;28.83;23.43;;;;;;;8.09;71.98;99914.03;1711835;81;21181;-61
2021/10/13 04:06:09;;;;;;;28.15;21.87;;;;;;;8.06;72.04;99909.11;1707467;81;21314;-68
2021/10/13 04:08:36;;;;;;;29.32;23.65;;;;;;;8.06;71.89;99910.91;1728559;81;21294;-61
2021/10/13 04:11:02;;;;;;;28.83;24.17;;;;;;;7.99;71.78;99894.40;1722271;81;21778;-62
2021/10/13 04:13:29;;;;;;;26.63;23.73;;;;;;;8.11;71.71;99919.16;1711469;81;21113;-63
2021/10/13 04:15:55;;;;;;;29.90;25.02;;;;;;;8.06;71.91;99916.22;1727504;81;21852;-61
2021/10/13 04:18:21;;;;;;;;;;;;;;;8.02;72.08;99913.61;1727689;81;21004;-64
2021/10/13 04:20:48;;;;;;;28.23;23.73;;;;;;;7.99;72.30;99919.61;1681093;83;20149;-63
2021/10/13 04:23:17;;;;;;;32.93;25.43;;;;;;;7.91;72.72;99923.69;1678904;83;21096;-61
2021/10/13 04:25:44;;;;;;;26.63;21.83;;;;;;;7.99;72.44;99920.13;1725251;81;21024;-64
2021/10/13 04:28:10;;;;;;;27.33;22.67;;;;;;;8.12;72.26;99919.50;1711596;81;21083;-64
2021/10/13 04:30:37;;;;;;;26.62;22.90;;;;;;;8.15;72.16;99923.09;1660492;84;21317;-60
2021/10/13 04:33:04;;;;;;;26.40;23.57;;;;;;;8.07;72.31;99917.88;1725236;81;21100;-61
2021/10/13 04:35:31;;;;;;;29.43;24.97;;;;;;;8.08;72.54;99922.17;1719953;81;21063;-61
2021/10/13 04:37:58;;;;;;;28.77;24.40;;;;;;;8.05;72.58;99923.38;1723444;81;21281;-62
2021/10/13 04:40:24;;;;;;;29.57;24.40;;;;;;;7.95;72.60;99917.52;1724857;81;21063;-62
2021/10/13 04:42:50;;;;;;;28.50;22.77;;;;;;;8.07;72.64;99940.45;1707088;81;21081;-62
2021/10/13 04:45:17;;;;;;;28.70;23.00;;;;;;;8.15;72.73;99935.05;1710422;81;21277;-61
2021/10/13 04:47:43;;;;;;;28.70;24.85;;;;;;;8.14;72.58;99940.05;1727705;81;21309;-62
2021/10/13 04:50:09;;;;;;;30.65;25.27;;;;;;;8.07;73.01;99941.27;1727331;81;21849;-62
2021/10/13 04:52:35;;;;;;;31.17;23.80;;;;;;;8.02;73.26;99944.14;1723659;81;21131;-62
2021/10/13 04:55:01;;;;;;;29.48;23.67;;;;;;;7.94;73.58;99942.39;1721162;81;21059;-64
2021/10/13 04:57:28;;;;;;;35.17;23.50;;;;;;;7.94;73.51;99949.84;1713682;81;21294;-62
2021/10/13 04:59:55;;;;;;;28.65;23.83;;;;;;;7.96;73.81;99955.80;1707625;81;21344;-63
2021/10/13 05:02:21;;;;;;;25.97;23.17;;;;;;;7.88;73.88;99955.88;1708812;81;21091;-63
2021/10/13 05:04:47;;;;;;;27.45;23.75;;;;;;;7.82;74.40;99960.59;1722356;81;21730;-65
2021/10/13 05:07:13;;;;;;;28.50;22.55;;;;;;;7.77;74.48;99954.98;1722164;81;21034;-63
2021/10/13 05:09:39;;;;;;;26.70;22.10;;;;;;;7.78;74.58;99956.65;1707914;81;21242;-64
2021/10/13 05:12:07;;;;;;;26.67;22.30;;;;;;;7.83;74.65;99953.44;1714514;81;21042;-68
2021/10/13 05:14:33;;;;;;;33.60;22.70;;;;;;;7.87;74.32;99951.56;1718833;81;21009;-62
2021/10/13 05:16:59;;;;;;;26.77;23.60;;;;;;;7.93;74.33;99953.52;1728403;81;21046;-62
2021/10/13 05:19:25;;;;;;;34.95;25.10;;;;;;;7.94;74.24;99960.97;1730730;81;21013;-62
2021/10/13 05:21:51;;;;;;;27.87;22.65;;;;;;;7.89;74.28;99970.81;1666969;84;21302;-64
2021/10/13 05:24:18;;;;;;;30.35;22.95;;;;;;;7.86;74.34;99968.51;1730427;81;21825;-61
2021/10/13 05:26:44;;;;;;;30.15;23.85;;;;;;;7.92;74.28;99969.62;1735801;81;21155;-64
2021/10/13 05:29:10;;;;;;;28.10;23.15;;;;;;;7.97;74.23;99972.05;1730065;81;21805;-63
2021/10/13 05:31:36;;;;;;;35.68;26.23;;;;;;;7.96;74.34;99977.02;1714984;81;21081;-64
2021/10/13 05:34:02;;;;;;;29.42;24.45;;;;;;;7.98;74.28;99982.97;1720414;81;21126;-64
2021/10/13 05:36:28;;;;;;;29.40;23.32;;;;;;;7.98;74.27;99977.67;1716329;81;21024;-64
2021/10/13 05:38:56;;;;;;;26.00;22.95;;;;;;;8.02;74.28;99975.48;1722558;81;22197;-61
2021/10/13 05:41:23;;;;;;;29.03;22.90;;;;;;;8.11;74.09;99977.56;1722681;81;21009;-62
2021/10/13 05:43:49;;;;;;;29.75;24.60;;;;;;;8.10;73.99;99983.86;1730099;81;21123;-62
2021/10/13 05:46:16;;;;;;;32.33;25.10;;;;;;;8.01;74.44;99983.65;1734473;81;21276;-61
2021/10/13 05:48:42;;;;;;;26.47;22.80;;;;;;;7.90;74.49;99982.24;1722190;81;21085;-62
2021/10/13 05:51:09;;;;;;;24.87;22.13;;;;;;;8.02;74.57;100000.70;1730755;81;21075;-63
2021/10/13 05:53:35;;;;;;;;;;;;;;;8.13;74.35;100004.24;1726215;81;21374;-63
2021/10/13 05:56:02;;;;;;;31.80;24.63;;;;;;;8.16;74.31;100005.22;1726844;81;20166;-65
2021/10/13 05:58:28;;;;;;;;;;;;;;;8.08;74.51;100000.00;1716401;81;21112;-64
2021/10/13 06:00:55;;;;;;;29.10;23.57;;;;;;;8.06;74.61;99990.06;1722378;81;20235;-64
2021/10/13 06:03:22;;;;;;;32.27;26.37;;;;;;;8.04;74.90;99997.87;1722034;81;21052;-63
2021/10/13 06:05:49;;;;;;;27.73;23.25;;;;;;;8.13;74.83;100005.57;1658896;84;21082;-64
2021/10/13 06:08:16;;;;;;;28.67;23.97;;;;;;;8.26;74.37;100002.30;1734569;81;21780;-63
2021/10/13 06:10:42;;;;;;;27.62;24.07;;;;;;;8.36;74.10;100005.53;1721253;81;21478;-64
2021/10/13 06:13:08;;;;;;;32.15;25.02;;;;;;;8.36;74.11;99998.89;1727762;81;21000;-64
2021/10/13 06:15:34;;;;;;;32.03;25.40;;;;;;;7.91;74.14;99933.45;1719228;81;22410;-64
2021/10/13 06:18:04;;;;;;;28.02;23.35;;;;;;;8.36;74.31;100004.20;1678924;83;21113;-63
2021/10/13 06:20:30;;;;;;;24.00;20.07;;;;;;;8.42;74.34;100005.81;1682847;83;21105;-64
2021/10/13 06:22:56;;;;;;;34.60;23.80;;;;;;;8.50;74.19;99997.78;1718885;81;21774;-66
2021/10/13 06:25:23;;;;;;;26.15;23.47;;;;;;;8.50;74.31;99994.61;1720501;81;21016;-66
2021/10/13 06:27:49;;;;;;;27.52;22.70;;;;;;;8.43;74.91;100000.84;1723162;81;21087;-65
2021/10/13 06:30:15;;;;;;;26.30;21.62;;;;;;;8.38;75.06;100003.52;1727032;81;21944;-65
2021/10/13 06:32:42;;;;;;;26.27;21.63;;;;;;;8.44;75.04;99995.83;1715528;81;21109;-63
2021/10/13 06:35:10;;;;;;;32.03;24.23;;;;;;;8.48;75.15;99999.80;1723463;81;21032;-68
2021/10/13 06:37:36;;;;;;;30.50;24.57;;;;;;;8.45;75.30;100001.48;1718175;81;21358;-65
2021/10/13 06:40:04;;;;;;;27.90;21.65;;;;;;;8.47;75.27;100006.10;1717808;81;21162;-66
2021/10/13 06:42:30;;;;;;;31.17;22.93;;;;;;;8.52;75.29;100010.37;1723618;81;21028;-64
2021/10/13 06:44:56;;;;;;;27.13;23.12;;;;;;;8.66;75.05;100008.71;1723173;81;21270;-64
2021/10/13 06:47:23;;;;;;;29.55;22.48;;;;;;;8.71;74.57;100009.81;1729831;81;21032;-63
2021/10/13 06:49:49;;;;;;;30.05;22.85;;;;;;;8.68;74.40;100011.52;1720277;81;21043;-64
2021/10/13 06:52:15;;;;;;;28.17;21.70;;;;;;;8.64;74.40;100011.55;1720511;81;21044;-67
2021/10/13 06:54:41;;;;;;;29.10;22.27;;;;;;;8.62;74.56;100001.61;1721464;81;21927;-64
2021/10/13 06:57:07;;;;;;;30.57;23.57;;;;;;;8.74;74.33;100005.98;1709189;81;21320;-64
2021/10/13 06:59:34;;;;;;;25.33;21.23;;;;;;;8.80;74.00;100003.06;1693785;83;21056;-63
2021/10/13 07:02:00;;;;;;;27.20;23.73;;;;;;;8.75;74.30;100010.27;1684357;83;21852;-64
2021/10/13 07:04:27;;;;;;;29.40;23.02;;;;;;;8.75;74.06;100012.93;1682098;83;21100;-64
2021/10/13 07:06:54;;;;;;;25.40;20.60;;;;;;;8.77;73.86;100012.23;1688998;83;21377;-64
2021/10/13 07:09:20;;;;;;;23.87;21.27;;;;;;;8.88;73.61;100018.92;1728145;81;21845;-65
2021/10/13 07:11:48;;;;;;;26.37;22.17;;;;;;;8.97;73.28;100020.48;1724312;81;21067;-64
2021/10/13 07:14:15;;;;;;;26.17;23.38;;;;;;;8.94;73.44;100016.84;1728710;81;21099;-63
2021/10/13 07:16:41;;;;;;;27.80;22.50;;;;;;;8.92;73.43;100023.67;1717170;81;21943;-64
2021/10/13 07:19:07;;;;;;;25.02;21.15;;;;;;;8.86;73.54;100020.44;1734198;81;21119;-65
2021/10/13 07:21:34;;;;;;;26.62;20.97;;;;;;;8.89;73.70;100020.55;1715128;81;22153;-63
2021/10/13 07:24:00;;;;;;;28.47;21.80;;;;;;;8.96;73.67;100021.47;1719581;81;21024;-64
2021/10/13 07:26:26;;;;;;;26.68;23.83;;;;;;;8.98;73.70;100018.63;1719164;81;21032;-63
2021/10/13 07:28:52;;;;;;;24.23;21.70;;;;;;;8.91;73.95;100017.20;1728979;81;21890;-66
2021/10/13 07:31:18;;;;;;;27.37;22.75;;;;;;;8.86;74.15;100016.45;1718664;81;21939;-65
2021/10/13 07:33:44;;;;;;;29.75;24.32;;;;;;;8.81;74.45;100017.50;1725285;81;21072;-64
2021/10/13 07:36:11;;;;;;;25.97;22.73;;;;;;;8.82;74.73;100016.50;1723355;81;21839;-64
2021/10/13 07:41:41;;;;;;;27.47;22.47;;;;;;;8.95;74.46;100022.50;1794659;78;23883;-64
2021/10/13 07:44:07;;;;;;;27.80;23.42;;;;;;;8.93;74.58;100019.20;1736553;80;21040;-66
2021/10/13 07:46:33;;;;;;;26.90;23.87;;;;;;;8.93;74.57;100016.03;1686410;83;21138;-63
2021/10/13 07:49:00;;;;;;;;;;;;;;;8.93;74.80;100015.22;1689205;83;22074;-66
2021/10/13 07:51:26;;;;;;;25.37;22.03;;;;;;;9.02;74.59;100014.08;1683948;83;20172;-64
2021/10/13 07:53:53;;;;;;;;;;;;;;;9.09;74.39;100017.64;1687432;83;21041;-66
2021/10/13 07:56:19;;;;;;;29.47;22.83;;;;;;;9.13;74.25;100024.23;1683719;83;20166;-65
2021/10/13 07:58:45;;;;;;;32.40;26.75;;;;;;;9.02;74.46;100026.55;1677978;84;21804;-65
2021/10/13 08:01:11;;;;;;;26.80;22.20;;;;;;;8.92;74.51;100021.53;1706631;82;21248;-64
2021/10/13 08:03:39;;;;;;;28.45;23.95;;;;;;;8.89;74.73;100021.41;1734238;81;21053;-64
2021/10/13 08:06:07;;;;;;;25.33;22.60;;;;;;;8.98;74.54;100022.11;1735282;81;21014;-65
2021/10/13 08:08:34;;;;;;;27.40;23.37;;;;;;;9.05;74.30;100017.70;1727813;81;21355;-67
2021/10/13 08:11:00;;;;;;;34.30;25.30;;;;;;;9.05;74.08;100017.70;1728926;81;21069;-65
2021/10/13 08:13:28;;;;;;;25.50;22.37;;;;;;;9.02;74.16;100020.72;1733676;82;21010;-64
2021/10/13 08:15:54;;;;;;;25.95;23.20;;;;;;;9.01;74.10;100028.91;1737697;81;21803;-64
2021/10/13 08:18:21;;;;;;;30.08;23.12;;;;;;;9.05;73.61;100025.67;1737758;81;21081;-66
2021/10/13 08:20:47;;;;;;;27.65;22.58;;;;;;;9.03;73.63;100025.05;1738539;81;21004;-65
2021/10/13 08:23:13;;;;;;;31.50;24.18;;;;;;;8.96;73.92;100021.47;1730880;82;21214;-66
2021/10/13 08:25:40;;;;;;;;;;;;;;;8.92;74.00;100022.34;1736102;81;21137;-67
2021/10/13 08:28:06;;;;;;;27.80;21.43;;;;;;;8.98;73.84;100024.77;1710104;82;20259;-65
2021/10/13 08:30:33;;;;;;;27.07;22.87;;;;;;;9.04;73.48;100025.86;1738712;82;21910;-65
2021/10/13 08:32:59;;;;;;;24.15;20.68;;;;;;;9.09;73.18;100024.29;1731476;82;21041;-65
2021/10/13 08:35:25;;;;;;;29.87;21.93;;;;;;;9.06;73.34;100018.52;1642154;82;22895;-68
2021/10/13 08:37:51;;;;;;;24.60;21.85;;;;;;;9.08;73.56;100020.48;1647500;86;21310;-66
2021/10/13 08:40:17;;;;;;;24.25;21.50;;;;;;;9.07;73.35;100021.00;1654567;85;21124;-65
2021/10/13 08:42:54;;;;;;;23.15;20.52;;;;;;;9.14;73.23;100016.59;1658049;86;21069;-65
2021/10/13 08:45:21;;;;;;;28.30;22.37;;;;;;;9.21;72.98;100019.34;1655420;84;21006;-66
2021/10/13 08:47:47;;;;;;;33.17;20.47;;;;;;;9.13;72.10;100018.91;1646788;85;21042;-64
2021/10/13 08:50:14;;;;;;;26.93;20.82;;;;;;;9.10;72.20;100019.30;1668268;84;21299;-67
2021/10/13 08:52:40;;;;;;;21.47;18.47;;;;;;;9.05;72.08;100021.69;1664694;84;21372;-65
2021/10/13 08:55:09;;;;;;;23.50;20.40;;;;;;;9.11;72.17;100016.13;1666352;83;21061;-64
2021/10/13 08:57:36;;;;;;;22.57;19.47;;;;;;;9.21;72.19;100015.83;1712788;82;21128;-64
2021/10/13 09:00:04;;;;;;;24.20;20.97;;;;;;;9.25;71.98;100011.30;1718225;82;21112;-64
2021/10/13 09:02:40;;;;;;;25.57;22.87;;;;;;;9.25;71.90;100011.30;1712185;82;20990;-65
2021/10/13 09:05:14;;;;;;;22.90;19.37;;;;;;;9.22;71.85;100016.16;1716393;82;21088;-66
2021/10/13 09:07:53;;;;;;;35.90;21.23;;;;;;;9.21;71.81;100024.66;1676529;83;21317;-66
2021/10/13 09:10:35;;;;;;;23.70;20.67;;;;;;;9.21;71.64;100026.47;1708551;82;21085;-64
2021/10/13 09:13:05;;;;;;;24.80;20.07;;;;;;;9.08;72.37;100027.97;1669991;83;21315;-64
2021/10/13 09:15:33;;;;;;;23.03;19.30;;;;;;;9.02;72.48;100032.69;1672485;84;22484;-65
2021/10/13 09:18:06;;;;;;;22.10;19.02;;;;;;;9.10;72.48;100029.12;1672651;84;21111;-68
2021/10/13 09:20:37;;;;;;;23.80;20.53;;;;;;;9.27;72.07;100031.88;1662225;84;21983;-67
2021/10/13 09:23:21;;;;;;;24.37;21.70;;;;;;;9.32;71.80;100036.14;1687388;82;20992;-65
2021/10/13 09:26:11;;;;;;;25.00;20.70;;;;;;;9.37;71.72;100044.88;1716175;82;22327;-65
2021/10/13 09:28:40;;;;;;;19.77;17.63;;;;;;;9.32;71.57;100027.31;1720417;82;21062;-65
2021/10/13 09:31:15;;;;;;;22.10;19.03;;;;;;;9.38;71.35;100035.89;1698143;82;21066;-65
2021/10/13 09:34:03;;;;;;;18.67;16.80;;;;;;;9.49;71.03;100038.55;1717578;82;21087;-63
2021/10/13 09:36:41;;;;;;;27.03;20.10;;;;;;;9.55;70.87;100037.81;1701845;82;21109;-68
2021/10/13 09:39:17;;;;;;;21.50;19.33;;;;;;;9.51;70.65;100032.53;1702805;82;21090;-65
2021/10/13 09:42:07;;;;;;;21.87;19.57;;;;;;;9.49;70.95;100034.55;1698107;82;21055;-66
2021/10/13 09:44:43;;;;;;;21.27;17.70;;;;;;;9.49;71.05;100036.73;1726242;80;21157;-66
2021/10/13 09:47:13;;;;;;;21.80;19.10;;;;;;;9.57;70.95;100041.59;1681899;83;21026;-66
2021/10/13 09:49:43;;;;;;;22.63;20.23;;;;;;;9.59;70.89;100039.56;1718959;82;20939;-67
2021/10/13 09:52:16;;;;;;;21.40;19.17;;;;;;;9.50;71.15;100042.35;1713606;82;21557;-65
2021/10/13 09:54:50;;;;;;;20.23;18.03;;;;;;;9.47;71.33;100036.58;1643778;85;21032;-65
2021/10/13 09:57:25;;;;;;;22.33;19.93;;;;;;;9.45;71.47;100042.09;1696197;82;21342;-64
2021/10/13 10:00:06;;;;;;;24.80;18.83;;;;;;;9.49;71.29;100042.05;1705439;82;21050;-66
2021/10/13 10:02:41;;;;;;;20.50;18.27;;;;;;;9.51;71.41;100035.19;1720098;82;21196;-66
2021/10/13 10:05:15;;;;;;;21.17;18.83;;;;;;;9.51;71.29;100037.36;1710132;82;21084;-65
2021/10/13 10:07:43;;;;;;;21.07;18.97;;;;;;;9.48;71.32;100032.41;1708818;83;21061;-66
2021/10/13 10:10:17;;;;;;;21.80;19.57;;;;;;;9.52;71.34;100032.86;1711089;83;21868;-65
2021/10/13 10:13:03;;;;;;;22.20;18.40;;;;;;;9.55;71.06;100031.98;1712523;80;21129;-66
2021/10/13 10:15:37;;;;;;;20.87;18.50;;;;;;;9.67;70.66;100030.14;1721127;82;20979;-66
2021/10/13 10:18:32;;;;;;;24.33;19.47;;;;;;;9.71;70.38;100028.74;1710440;82;21302;-65
2021/10/13 10:21:25;;;;;;;22.20;18.80;;;;;;;9.66;70.44;100034.65;1696740;82;21053;-65
2021/10/13 10:23:54;;;;;;;22.00;17.43;;;;;;;9.62;70.64;100028.55;1711421;82;21273;-67
2021/10/13 10:26:32;;;;;;;20.23;17.63;;;;;;;9.68;70.16;100033.11;1711716;82;21299;-65
2021/10/13 10:29:12;;;;;;;20.43;18.33;;;;;;;9.68;69.63;100023.79;1698501;82;21062;-65
2021/10/13 10:31:42;;;;;;;18.63;16.70;;;;;;;9.79;69.59;100021.95;1711200;82;21809;-66
2021/10/13 10:34:16;;;;;;;22.60;18.23;;;;;;;9.80;69.50;100027.61;1711237;82;21064;-66
2021/10/13 10:36:51;;;;;;;21.37;19.07;;;;;;;9.80;69.35;100022.80;1708874;82;21027;-65
2021/10/13 10:39:19;;;;;;;24.43;19.57;;;;;;;9.83;69.28;100029.05;1708649;82;21154;-65
2021/10/13 10:41:55;;;;;;;25.40;16.90;;;;;;;9.84;69.05;100021.39;1707146;82;22111;-68
2021/10/13 10:44:47;;;;;;;19.45;17.48;;;;;;;9.89;68.41;100030.97;1694073;81;21046;-66
2021/10/13 10:47:18;;;;;;;23.20;19.30;;;;;;;10.00;68.11;100026.95;1699498;82;21904;-66
2021/10/13 10:49:49;;;;;;;21.17;19.00;;;;;;;10.00;67.65;100026.46;1683025;84;21899;-65
2021/10/13 10:52:25;;;;;;;18.67;16.63;;;;;;;9.98;67.69;100031.64;1701133;83;21054;-66
2021/10/13 10:55:07;;;;;;;21.23;19.00;;;;;;;9.95;67.37;100023.55;1690683;82;21120;-69
2021/10/13 10:57:43;;;;;;;18.80;16.87;;;;;;;9.97;67.17;100030.02;1703227;84;21038;-66
2021/10/13 11:00:23;;;;;;;20.23;17.97;;;;;;;9.98;66.60;100029.80;1703124;82;21035;-65
2021/10/13 11:02:50;;;;;;;18.70;16.17;;;;;;;9.99;66.30;100031.45;1699868;82;21353;-66
2021/10/13 11:05:21;;;;;;;22.53;18.20;;;;;;;9.52;65.96;99947.72;1676047;84;21855;-66
2021/10/13 11:07:48;;;;;;;22.87;18.03;;;;;;;10.07;65.87;100027.83;1708104;83;21236;-65
2021/10/13 11:10:15;;;;;;;19.90;17.90;;;;;;;10.06;65.61;100031.53;1706356;82;21077;-67
2021/10/13 11:12:53;;;;;;;19.73;17.47;;;;;;;10.04;65.69;100036.19;1704757;82;21811;-67
2021/10/13 11:15:23;;;;;;;20.40;18.27;;;;;;;9.99;65.88;100037.30;1688661;84;21030;-64
2021/10/13 11:17:51;;;;;;;18.47;16.60;;;;;;;9.93;66.04;100034.38;1699165;82;21081;-63
2021/10/13 11:20:21;;;;;;;16.73;14.50;;;;;;;9.90;66.47;100030.75;1700914;83;21041;-70
2021/10/13 11:23:05;;;;;;;17.83;15.93;;;;;;;10.00;66.06;100034.45;1698971;82;21761;-67
2021/10/13 11:25:33;;;;;;;18.90;17.00;;;;;;;10.08;65.77;100032.16;1682340;84;21298;-66
2021/10/13 11:28:10;;;;;;;19.97;17.87;;;;;;;10.07;66.01;100036.63;1704395;82;21017;-64
2021/10/13 11:30:46;;;;;;;21.85;19.37;;;;;;;10.12;66.27;100032.08;1679901;82;21646;-65
2021/10/13 11:33:17;;;;;;;19.63;17.57;;;;;;;10.16;66.13;100028.01;1663662;85;21099;-66
2021/10/13 11:35:45;;;;;;;19.73;17.63;;;;;;;9.89;66.10;99981.20;1656414;85;21069;-64
2021/10/13 11:38:18;;;;;;;19.77;17.73;;;;;;;10.20;65.98;100029.27;1682093;83;21847;-65
2021/10/13 11:40:45;;;;;;;16.43;14.77;;;;;;;10.27;66.02;100026.15;1676969;83;21050;-66
2021/10/13 11:43:17;;;;;;;19.23;17.13;;;;;;;10.33;65.84;100020.06;1679886;83;21081;-65